createdAt,value
2023-01-13T08:28:24.000Z,142273.13
2023-01-13T08:33:27.871Z,142304.03
2023-01-13T08:38:31.523Z,142292.91
2023-01-13T08:43:36.457Z,142308.97
2023-01-13T08:48:39.827Z,142300.31
2023-01-13T08:53:43.481Z,142321.34
2023-01-13T08:58:48.354Z,142322.59
2023-01-13T09:03:52.200Z,142308.97
2023-01-13T09:08:57.862Z,142308.97
2023-01-13T09:14:03.605Z,142307.72
2023-01-13T09:19:07.024Z,142310.19
2023-01-13T09:24:17.919Z,142290.41
2023-01-13T09:29:25.131Z,142292.91
2023-01-13T09:34:46.498Z,142275.59
2023-01-13T09:39:57.463Z,142258.25
2023-01-13T09:45:07.177Z,142280.53
2023-01-13T09:50:39.111Z,142278.06
2023-01-13T09:55:45.371Z,142249.63
2023-01-13T10:00:54.945Z,142228.59
2023-01-13T10:06:02.163Z,142231.06
2023-01-13T10:11:31.963Z,142271.88
2023-01-13T10:16:53.581Z,142268.19
2023-01-13T10:22:10.871Z,142300.31
2023-01-13T10:27:19.764Z,142302.78
2023-01-13T10:32:25.943Z,142269.41
2023-01-13T10:37:29.700Z,142232.28
2023-01-13T10:42:33.025Z,142312.66
2023-01-13T10:47:38.033Z,142322.59
2023-01-13T10:52:57.320Z,142357.22
2023-01-13T10:58:12.915Z,142381.94
2023-01-13T11:03:22.195Z,142357.22
2023-01-13T11:08:30.933Z,142360.91
2023-01-13T11:14:01.046Z,142373.25
2023-01-13T11:20:35.475Z,142390.59
2023-01-13T11:25:05.939Z,142441.34
2023-01-13T11:30:13.717Z,142473.50
2023-01-13T11:35:18.639Z,142422.75
2023-01-13T11:40:34.011Z,142372.03
2023-01-13T11:45:54.391Z,142402.94
2023-01-13T11:51:02.514Z,142407.94
2023-01-13T11:56:31.215Z,142428.94
2023-01-13T12:01:45.922Z,142431.41
2023-01-13T12:06:53.608Z,142441.34
2023-01-13T12:12:23.027Z,142438.88
2023-01-13T12:17:30.144Z,142452.44
2023-01-13T12:22:36.040Z,142440.09
2023-01-13T12:27:45.900Z,142458.63
2023-01-13T12:32:52.046Z,142466.09
2023-01-13T12:37:59.284Z,142451.22
2023-01-13T12:43:26.782Z,142459.84
2023-01-13T12:49:26.941Z,142457.38
2023-01-13T12:54:34.924Z,142503.19
2023-01-13T12:59:39.916Z,142560.06
2023-01-13T13:04:44.885Z,142509.38
2023-01-13T13:09:52.532Z,142501.94
2023-01-13T13:15:20.270Z,142510.59
2023-01-13T13:20:42.912Z,142448.75
2023-01-13T13:26:00.141Z,142440.09
2023-01-13T13:31:18.320Z,142421.53
2023-01-13T13:36:43.549Z,142399.25
2023-01-13T13:42:06.882Z,142426.47
2023-01-13T13:47:17.884Z,142447.50
2023-01-13T13:52:24.259Z,142477.19
2023-01-13T13:57:31.688Z,142490.84
2023-01-13T14:02:38.678Z,142485.84
2023-01-13T14:07:46.569Z,142436.38
2023-01-13T14:12:50.326Z,142398.00
2023-01-13T14:17:55.529Z,142389.38
2023-01-13T14:23:01.660Z,142402.94
2023-01-13T14:28:10.001Z,142394.31
2023-01-13T14:33:17.155Z,142344.81
2023-01-13T14:38:21.014Z,142352.28
2023-01-13T14:43:26.516Z,142343.56
2023-01-13T14:48:50.846Z,142306.50
2023-01-13T14:53:55.947Z,142287.94
2023-01-13T14:59:03.688Z,142221.19
2023-01-13T15:04:17.703Z,142336.16
2023-01-13T15:09:25.019Z,142297.84
2023-01-13T15:14:33.790Z,142312.66
2023-01-13T15:19:37.257Z,142296.63
2023-01-13T15:24:42.499Z,142313.91
2023-01-13T15:29:46.385Z,142287.94
2023-01-13T15:34:50.785Z,142278.06
2023-01-13T15:39:55.696Z,142302.78
2023-01-13T15:45:16.661Z,142271.88
2023-01-13T15:50:24.702Z,142250.84
2023-01-13T15:55:29.568Z,142263.19
2023-01-13T16:00:35.456Z,142211.31
2023-01-13T16:05:38.803Z,142210.06
2023-01-13T16:10:44.683Z,142185.34
2023-01-13T16:15:49.320Z,142169.25
2023-01-13T16:20:55.335Z,142170.50
2023-01-13T16:26:05.334Z,142231.06
2023-01-13T16:31:17.119Z,142290.41
2023-01-13T16:36:21.350Z,142271.88
2023-01-13T16:41:26.176Z,142266.94
2023-01-13T16:46:33.553Z,142200.16
2023-01-13T16:51:38.956Z,142166.78
2023-01-13T16:56:47.295Z,142180.41
2023-01-13T17:01:51.091Z,142217.47
2023-01-13T17:06:56.663Z,142158.16
2023-01-13T17:12:01.420Z,142172.97
2023-01-13T17:17:04.907Z,142171.72
2023-01-13T17:22:10.187Z,142175.44
2023-01-13T17:27:17.283Z,142166.78
2023-01-13T17:32:21.188Z,142166.78
2023-01-13T17:37:24.646Z,142185.34
2023-01-13T17:42:31.225Z,142149.47
2023-01-13T17:47:36.038Z,142149.47
2023-01-13T17:52:39.832Z,142135.91
2023-01-13T17:57:45.447Z,142109.94
2023-01-13T18:02:48.935Z,142049.41
2023-01-13T18:07:53.241Z,142025.94
2023-01-13T18:13:00.386Z,142012.34
2023-01-13T18:32:09.032Z,142060.50
2023-01-13T18:37:13.534Z,142061.75
2023-01-13T18:42:34.458Z,142051.88
2023-01-13T18:47:42.133Z,142075.34
2023-01-13T18:52:45.541Z,142080.28
2023-01-13T18:57:49.016Z,142108.72
2023-01-13T19:09:17.738Z,142106.25
2023-01-13T19:14:50.711Z,142097.59
2023-01-13T19:20:11.419Z,142058.03
2023-01-13T19:25:52.133Z,142090.16
2023-01-13T19:31:02.316Z,142112.41
2023-01-13T19:36:17.465Z,142095.09
2023-01-13T19:42:24.195Z,142109.94
2023-01-13T19:47:40.577Z,142062.97
2023-01-13T19:52:44.143Z,142107.47
2023-01-13T19:57:50.434Z,142135.91
2023-01-13T20:02:56.793Z,142108.72
2023-01-13T20:08:02.569Z,142059.28
2023-01-13T20:13:11.591Z,142030.84
2023-01-13T20:18:18.882Z,142025.94
2023-01-13T20:23:22.823Z,141991.34
2023-01-13T20:28:26.783Z,142027.16
2023-01-13T20:33:31.861Z,142028.38
2023-01-13T20:38:38.463Z,142008.59
2023-01-13T20:43:41.975Z,142030.84
2023-01-13T20:48:50.438Z,142008.59
2023-01-13T20:54:00.483Z,142016.06
2023-01-13T20:59:04.039Z,142023.47
2023-01-13T21:04:12.933Z,141996.28
2023-01-13T21:09:19.164Z,141965.41
2023-01-13T21:20:04.656Z,141990.13
2023-01-13T21:25:08.786Z,141958.00
2023-01-13T21:30:15.177Z,141965.41
2023-01-13T21:35:20.605Z,141916.03
2023-01-13T21:40:24.384Z,141935.81
2023-01-13T21:45:56.815Z,141902.50
2023-01-13T21:51:03.123Z,141877.78
2023-01-13T21:56:07.863Z,141860.47
2023-01-13T22:07:00.457Z,141925.91
2023-01-13T22:12:22.720Z,141929.66
2023-01-13T22:17:33.483Z,141890.13
2023-01-13T22:22:38.349Z,141871.63
2023-01-13T22:27:44.743Z,141867.88
2023-01-13T22:32:50.399Z,141862.94
2023-01-13T22:37:53.875Z,141903.72
2023-01-13T22:43:06.399Z,141893.81
2023-01-13T22:48:10.071Z,141918.50
2023-01-13T22:53:13.458Z,141924.69
2023-01-13T22:58:18.234Z,141939.50
2023-01-13T23:03:21.729Z,141951.84
